Time;durP1;ratioP1;P1;durP2;ratioP2;P2;SDS_P1;SDS_P2;PMS_P1;PMS_P2;Temp;Humidity;BMP_temperature;BMP_pressure;BME280_temperature;BME280_humidity;BME280_pressure;Samples;Min_cycle;Max_cycle;Signal;HPM_P1;HPM_P2
2023/12/29 00:00:07;;;;;;;0.95;0.52;;;22.30;37.60;;;;;;4960471;28;20051;-58
2023/12/29 00:02:34;;;;;;;0.80;0.60;;;22.30;37.60;;;;;;4965092;28;20058;-58
2023/12/29 00:05:04;;;;;;;2.92;0.93;;;22.30;37.70;;;;;;4965797;28;20046;-58
2023/12/29 00:07:31;;;;;;;1.83;0.68;;;22.30;37.80;;;;;;4967461;28;20093;-58
2023/12/29 00:09:58;;;;;;;1.20;0.82;;;22.30;37.80;;;;;;4965900;28;20081;-58
2023/12/29 00:12:25;;;;;;;1.17;0.60;;;22.40;37.90;;;;;;4962824;28;20057;-58
2023/12/29 00:14:52;;;;;;;1.65;0.80;;;22.40;37.90;;;;;;4965914;28;20114;-59
2023/12/29 00:17:19;;;;;;;0.70;0.50;;;22.50;37.90;;;;;;4962477;28;20481;-58
2023/12/29 00:19:47;;;;;;;1.13;0.70;;;22.50;37.80;;;;;;4963896;28;20051;-58
2023/12/29 00:22:15;;;;;;;2.30;0.93;;;22.50;37.70;;;;;;4957141;28;20051;-59
2023/12/29 00:24:42;;;;;;;0.88;0.60;;;22.60;37.70;;;;;;4965748;28;20058;-58
2023/12/29 00:27:10;;;;;;;1.58;0.73;;;22.60;37.70;;;;;;4962216;28;20054;-55
2023/12/29 00:29:37;;;;;;;1.17;0.50;;;22.70;37.70;;;;;;4963191;28;20054;-59
2023/12/29 00:32:05;;;;;;;1.10;0.60;;;22.70;37.60;;;;;;4960844;28;20524;-59
2023/12/29 00:34:32;;;;;;;1.65;0.80;;;22.70;37.60;;;;;;4965086;28;20055;-58
2023/12/29 00:36:59;;;;;;;1.25;0.55;;;22.70;37.50;;;;;;4958722;28;20055;-57
2023/12/29 00:39:30;;;;;;;1.70;0.80;;;22.70;37.50;;;;;;4965061;28;20428;-58
2023/12/29 00:41:57;;;;;;;0.95;0.60;;;22.70;37.50;;;;;;4962719;28;20065;-58
2023/12/29 00:44:25;;;;;;;1.02;0.60;;;22.70;37.50;;;;;;4962604;28;20070;-58
2023/12/29 00:46:52;;;;;;;0.77;0.40;;;22.70;37.50;;;;;;4960052;28;20520;-58
2023/12/29 00:49:19;;;;;;;1.33;0.50;;;22.70;37.50;;;;;;4964008;28;20050;-58
2023/12/29 00:51:49;;;;;;;0.73;0.60;;;22.70;37.50;;;;;;4963687;28;20490;-58
2023/12/29 00:54:16;;;;;;;1.13;0.63;;;22.60;37.40;;;;;;4966715;28;20069;-58
2023/12/29 00:56:49;;;;;;;1.17;0.60;;;22.60;37.40;;;;;;4960707;28;20055;-58
2023/12/29 00:59:16;;;;;;;3.20;0.70;;;22.60;37.40;;;;;;4963187;28;20065;-58
2023/12/29 01:01:44;;;;;;;2.33;0.70;;;22.60;37.40;;;;;;4955976;28;20055;-58
2023/12/29 01:04:12;;;;;;;1.60;0.95;;;22.60;37.40;;;;;;4964417;28;20485;-58
2023/12/29 01:06:39;;;;;;;1.63;0.88;;;22.60;37.40;;;;;;4960164;28;20055;-58
2023/12/29 01:09:08;;;;;;;1.23;0.73;;;22.60;37.40;;;;;;4965529;28;20548;-58
2023/12/29 01:11:35;;;;;;;1.00;0.52;;;22.60;37.40;;;;;;4966501;28;20054;-58
2023/12/29 01:14:03;;;;;;;1.30;0.52;;;22.50;37.30;;;;;;4964086;28;21298;-57
2023/12/29 01:16:31;;;;;;;1.35;0.70;;;22.50;37.40;;;;;;4962152;28;20059;-58
2023/12/29 01:18:58;;;;;;;1.10;0.70;;;22.50;37.30;;;;;;4964063;28;20509;-57
2023/12/29 01:21:25;;;;;;;2.00;0.82;;;22.50;37.40;;;;;;4971790;28;20489;-58
2023/12/29 01:23:52;;;;;;;2.28;0.68;;;22.50;37.40;;;;;;4963329;28;20062;-57
2023/12/29 01:26:19;;;;;;;1.95;1.00;;;22.40;37.40;;;;;;4957608;28;20050;-58
2023/12/29 01:28:46;;;;;;;3.17;0.88;;;22.40;37.40;;;;;;4963632;28;20066;-58
2023/12/29 01:31:15;;;;;;;1.42;0.77;;;22.50;37.40;;;;;;4965026;28;20058;-58
2023/12/29 01:33:42;;;;;;;1.70;0.70;;;22.40;37.40;;;;;;4963955;28;20405;-58
2023/12/29 01:36:09;;;;;;;0.85;0.70;;;22.40;37.40;;;;;;4966791;28;20073;-58
2023/12/29 01:38:36;;;;;;;2.45;0.70;;;22.30;37.40;;;;;;4961877;28;20486;-58
2023/12/29 01:41:04;;;;;;;3.10;0.63;;;22.30;37.40;;;;;;4962498;28;20046;-57
2023/12/29 01:43:31;;;;;;;1.75;0.90;;;22.30;37.40;;;;;;4961284;28;20050;-58
2023/12/29 01:45:58;;;;;;;3.58;0.80;;;22.30;37.40;;;;;;4959891;28;20058;-57
2023/12/29 01:48:27;;;;;;;1.58;0.75;;;22.30;37.40;;;;;;4964669;28;20055;-58
2023/12/29 01:50:57;;;;;;;1.70;0.63;;;22.30;37.50;;;;;;4966118;28;20054;-58
2023/12/29 01:53:24;;;;;;;2.60;0.90;;;22.30;37.50;;;;;;4963334;28;20070;-57
2023/12/29 01:55:51;;;;;;;2.42;0.90;;;22.30;37.60;;;;;;4966426;28;20448;-58
2023/12/29 01:58:18;;;;;;;0.80;0.70;;;22.30;37.70;;;;;;4961211;28;20055;-59
2023/12/29 02:00:45;;;;;;;1.92;0.63;;;22.30;37.70;;;;;;4967985;28;20077;-58
2023/12/29 02:03:13;;;;;;;1.52;0.70;;;22.30;37.80;;;;;;4965277;28;20055;-58
2023/12/29 02:05:43;;;;;;;2.22;0.60;;;22.30;37.80;;;;;;4958882;28;20065;-58
2023/12/29 02:08:12;;;;;;;1.05;0.50;;;22.40;37.90;;;;;;4962613;28;20055;-58
2023/12/29 02:10:39;;;;;;;2.75;0.80;;;22.50;37.90;;;;;;4964399;28;20046;-58
2023/12/29 02:13:06;;;;;;;1.90;0.65;;;22.50;37.80;;;;;;4959860;28;20639;-59
2023/12/29 02:15:33;;;;;;;1.73;0.68;;;22.60;37.80;;;;;;4956689;28;20062;-58
2023/12/29 02:18:03;;;;;;;2.17;0.70;;;22.60;37.70;;;;;;4961149;28;20055;-58
2023/12/29 02:20:31;;;;;;;1.92;0.75;;;22.60;37.70;;;;;;4965299;28;20082;-57
2023/12/29 02:23:00;;;;;;;0.93;0.60;;;22.60;37.60;;;;;;4959285;28;20051;-58
2023/12/29 02:25:28;;;;;;;1.30;0.65;;;22.70;37.70;;;;;;4961235;28;20055;-58
2023/12/29 02:27:59;;;;;;;2.22;0.90;;;22.70;37.60;;;;;;4954261;28;20050;-59
2023/12/29 02:30:34;;;;;;;1.13;0.70;;;22.70;37.50;;;;;;4966974;28;20054;-60
2023/12/29 02:33:05;;;;;;;2.22;0.73;;;22.70;37.50;;;;;;4963684;28;20055;-60
2023/12/29 02:35:36;;;;;;;1.92;0.93;;;22.80;37.50;;;;;;4963569;28;20046;-58
2023/12/29 02:38:04;;;;;;;2.10;1.15;;;22.70;37.40;;;;;;4964022;28;20087;-60
2023/12/29 02:40:33;;;;;;;2.25;0.95;;;22.70;37.50;;;;;;4966604;28;20512;-58
2023/12/29 02:43:00;;;;;;;3.15;0.93;;;22.70;37.40;;;;;;4961889;28;20051;-59
2023/12/29 02:45:28;;;;;;;1.88;0.70;;;22.70;37.40;;;;;;4972371;28;20412;-60
2023/12/29 02:47:55;;;;;;;2.75;0.90;;;22.70;37.40;;;;;;4962458;28;20062;-60
2023/12/29 02:50:22;;;;;;;3.13;1.00;;;22.70;37.40;;;;;;4955981;28;20421;-60
2023/12/29 02:52:49;;;;;;;3.50;1.13;;;22.70;37.40;;;;;;4965958;28;20057;-60
2023/12/29 02:55:16;;;;;;;2.83;1.05;;;22.70;37.40;;;;;;4963125;28;20057;-59
2023/12/29 02:57:45;;;;;;;2.25;1.08;;;22.60;37.30;;;;;;4973027;28;20049;-59
2023/12/29 03:00:13;;;;;;;1.98;0.82;;;22.60;37.30;;;;;;4970064;28;20062;-59
2023/12/29 03:02:40;;;;;;;2.47;0.90;;;22.60;37.30;;;;;;4965248;28;20050;-60
2023/12/29 03:05:08;;;;;;;2.40;1.00;;;22.60;37.30;;;;;;4964441;28;20416;-59
2023/12/29 03:07:36;;;;;;;2.17;0.77;;;22.60;37.30;;;;;;4966343;28;20086;-60
2023/12/29 03:10:03;;;;;;;3.00;0.90;;;22.60;37.30;;;;;;4964315;28;20432;-60
2023/12/29 03:12:31;;;;;;;3.05;1.00;;;22.50;37.30;;;;;;4964196;28;20054;-60
2023/12/29 03:14:59;;;;;;;2.95;1.08;;;22.50;37.30;;;;;;4962753;28;20525;-59
2023/12/29 03:17:27;;;;;;;1.92;1.05;;;22.50;37.30;;;;;;4967254;28;20059;-60
2023/12/29 03:19:54;;;;;;;1.27;0.70;;;22.50;37.40;;;;;;4962395;28;20058;-60
2023/12/29 03:22:21;;;;;;;3.17;1.00;;;22.50;37.40;;;;;;4961395;28;20054;-59
2023/12/29 03:24:49;;;;;;;3.67;1.08;;;22.50;37.40;;;;;;4961110;28;20077;-57
2023/12/29 03:27:16;;;;;;;2.33;0.80;;;22.50;37.30;;;;;;4964210;28;20055;-58
2023/12/29 03:29:43;;;;;;;2.63;0.80;;;22.40;37.30;;;;;;4965475;28;20061;-58
2023/12/29 03:32:12;;;;;;;3.20;1.00;;;22.40;37.30;;;;;;4963826;28;20382;-57
2023/12/29 03:34:39;;;;;;;2.47;0.88;;;22.40;37.30;;;;;;4968615;28;20059;-58
2023/12/29 03:37:06;;;;;;;3.08;1.05;;;22.30;37.20;;;;;;4962572;28;20051;-57
2023/12/29 03:39:35;;;;;;;2.60;0.90;;;22.40;37.30;;;;;;4968697;28;20051;-57
2023/12/29 03:42:02;;;;;;;1.98;0.80;;;22.30;37.30;;;;;;4962676;28;20070;-58
2023/12/29 03:44:29;;;;;;;2.45;0.95;;;22.30;37.40;;;;;;4965325;28;20070;-58
2023/12/29 03:46:56;;;;;;;1.80;0.70;;;22.30;37.40;;;;;;4961083;28;20054;-59
2023/12/29 03:49:25;;;;;;;2.13;0.80;;;22.30;37.40;;;;;;4967667;28;20043;-58
2023/12/29 03:51:52;;;;;;;1.38;0.65;;;22.30;37.50;;;;;;4963361;28;20051;-58
2023/12/29 03:54:21;;;;;;;2.67;0.90;;;22.30;37.50;;;;;;4969559;28;20291;-59
2023/12/29 03:56:48;;;;;;;3.40;1.00;;;22.30;37.60;;;;;;4966691;28;20069;-58
2023/12/29 03:59:15;;;;;;;1.67;0.63;;;22.40;37.70;;;;;;4967944;28;20050;-57
2023/12/29 04:01:43;;;;;;;2.03;0.75;;;22.40;37.70;;;;;;4969122;28;20054;-58
2023/12/29 04:04:10;;;;;;;1.67;0.85;;;22.40;37.70;;;;;;4972289;28;20119;-58
2023/12/29 04:06:39;;;;;;;1.20;0.50;;;22.50;37.70;;;;;;4971026;28;20051;-58
2023/12/29 04:09:06;;;;;;;2.88;0.88;;;22.50;37.60;;;;;;4961719;28;20062;-58
2023/12/29 04:11:33;;;;;;;2.53;0.95;;;22.60;37.60;;;;;;4967318;28;20050;-58
2023/12/29 04:14:01;;;;;;;1.25;0.80;;;22.60;37.50;;;;;;4962632;28;20047;-58
2023/12/29 04:16:29;;;;;;;2.75;1.10;;;22.60;37.50;;;;;;4967108;28;20058;-57
2023/12/29 04:18:56;;;;;;;1.70;0.65;;;22.60;37.40;;;;;;4959241;28;20055;-58
2023/12/29 04:21:23;;;;;;;1.70;0.90;;;22.70;37.40;;;;;;4960680;28;20509;-58
2023/12/29 04:23:51;;;;;;;2.47;0.90;;;22.70;37.40;;;;;;4963790;28;20071;-58
2023/12/29 04:26:19;;;;;;;2.17;0.82;;;22.80;37.40;;;;;;4966387;28;20058;-58
2023/12/29 04:28:46;;;;;;;3.13;0.80;;;22.70;37.30;;;;;;4957679;28;21257;-58
2023/12/29 04:31:13;;;;;;;2.58;1.15;;;22.70;37.80;;;;;;4961819;28;20084;-58
2023/12/29 04:33:41;;;;;;;3.13;0.88;;;22.80;37.30;;;;;;4967249;28;20062;-59
2023/12/29 04:36:08;;;;;;;4.28;0.98;;;22.70;37.20;;;;;;4964435;28;20050;-59
2023/12/29 04:38:35;;;;;;;3.20;1.20;;;22.70;37.20;;;;;;4959975;28;20074;-58
2023/12/29 04:41:04;;;;;;;8.82;1.25;;;22.70;37.30;;;;;;4961260;28;20050;-59
2023/12/29 04:43:31;;;;;;;2.88;0.98;;;22.70;37.30;;;;;;4960452;28;20051;-58
2023/12/29 04:45:58;;;;;;;2.08;0.68;;;22.70;37.30;;;;;;4961974;28;20051;-58
2023/12/29 04:48:25;;;;;;;8.82;1.25;;;22.70;37.40;;;;;;4961401;28;20054;-58
2023/12/29 04:50:52;;;;;;;5.30;0.82;;;22.70;37.50;;;;;;4965524;28;20062;-59
2023/12/29 04:53:19;;;;;;;3.60;0.80;;;22.70;37.40;;;;;;4958843;28;20059;-57
2023/12/29 04:55:46;;;;;;;4.13;0.88;;;22.60;37.30;;;;;;4962267;28;20047;-58
2023/12/29 04:58:15;;;;;;;2.78;0.77;;;22.70;37.30;;;;;;4963774;28;20064;-58
2023/12/29 05:00:42;;;;;;;4.38;0.93;;;22.70;37.20;;;;;;4960542;28;20054;-56
2023/12/29 05:03:09;;;;;;;6.65;1.35;;;22.60;37.20;;;;;;4958664;28;20055;-58
2023/12/29 05:05:36;;;;;;;4.70;1.00;;;22.60;37.20;;;;;;4959383;28;20046;-57
2023/12/29 05:08:04;;;;;;;3.42;0.93;;;22.60;37.20;;;;;;4960079;28;20055;-58
2023/12/29 05:10:34;;;;;;;2.28;0.90;;;22.60;37.20;;;;;;4964179;28;20058;-58
2023/12/29 05:13:01;;;;;;;3.55;1.27;;;22.50;37.20;;;;;;4964355;28;20082;-58
2023/12/29 05:15:30;;;;;;;2.08;0.65;;;22.50;37.20;;;;;;4962212;28;20505;-57
2023/12/29 05:17:57;;;;;;;1.75;0.80;;;22.50;37.20;;;;;;4962186;28;20061;-58
2023/12/29 05:20:24;;;;;;;4.13;1.13;;;22.50;37.20;;;;;;4964657;28;20064;-57
2023/12/29 05:22:51;;;;;;;3.95;1.23;;;22.50;37.20;;;;;;4965558;28;20050;-57
2023/12/29 05:25:19;;;;;;;4.22;0.80;;;22.50;37.30;;;;;;4960925;28;20054;-57
2023/12/29 05:27:46;;;;;;;3.35;0.80;;;22.40;37.20;;;;;;4965597;28;20053;-57
2023/12/29 05:30:14;;;;;;;2.28;0.95;;;22.40;37.20;;;;;;4961653;28;20046;-57
2023/12/29 05:32:43;;;;;;;1.80;0.80;;;22.40;37.30;;;;;;4966911;28;20416;-58
2023/12/29 05:35:10;;;;;;;2.67;1.02;;;22.40;37.80;;;;;;4964140;28;20065;-58
2023/12/29 05:37:37;;;;;;;1.50;0.65;;;22.30;37.30;;;;;;4965037;28;20054;-57
2023/12/29 05:40:06;;;;;;;2.78;0.88;;;22.40;37.40;;;;;;4965138;28;20062;-57
2023/12/29 05:42:34;;;;;;;2.28;0.90;;;22.40;37.50;;;;;;4967212;28;20061;-57
2023/12/29 05:45:01;;;;;;;1.23;0.50;;;22.40;37.60;;;;;;4962105;28;20050;-60
2023/12/29 05:47:28;;;;;;;1.58;0.63;;;22.40;37.70;;;;;;4964183;28;20401;-60
2023/12/29 05:49:57;;;;;;;2.90;0.90;;;22.40;37.70;;;;;;4962287;28;21652;-59
2023/12/29 05:52:24;;;;;;;1.88;0.75;;;22.40;37.70;;;;;;4964937;28;20063;-58
2023/12/29 05:54:51;;;;;;;7.22;0.63;;;22.50;37.70;;;;;;4966386;28;20505;-58
2023/12/29 05:57:18;;;;;;;1.80;0.68;;;22.60;37.70;;;;;;4957530;28;20073;-60
2023/12/29 05:59:46;;;;;;;3.50;0.68;;;22.60;37.70;;;;;;4963733;28;20057;-59
2023/12/29 06:02:13;;;;;;;7.10;1.20;;;22.60;37.60;;;;;;4959038;28;20405;-60
2023/12/29 06:04:40;;;;;;;2.72;0.90;;;22.70;37.60;;;;;;4960896;28;20104;-61
2023/12/29 06:07:09;;;;;;;4.22;0.82;;;22.70;37.60;;;;;;4965846;28;20540;-54
2023/12/29 06:09:37;;;;;;;5.55;0.82;;;22.70;37.60;;;;;;4964831;28;20050;-58
2023/12/29 06:12:06;;;;;;;5.00;0.93;;;22.80;37.80;;;;;;4966688;28;20050;-59
2023/12/29 06:14:33;;;;;;;4.07;0.80;;;22.80;37.80;;;;;;4961510;28;20051;-59
2023/12/29 06:17:00;;;;;;;5.80;1.42;;;22.90;37.80;;;;;;4965209;28;20398;-59
2023/12/29 06:19:28;;;;;;;9.35;4.50;;;23.00;37.70;;;;;;4962992;28;20047;-59
2023/12/29 06:21:55;;;;;;;9.82;5.32;;;23.00;37.60;;;;;;4962824;28;20058;-59
2023/12/29 06:24:24;;;;;;;13.73;4.65;;;23.10;37.60;;;;;;4961982;28;20059;-57
2023/12/29 06:26:51;;;;;;;7.65;3.13;;;23.10;37.50;;;;;;4962186;28;20077;-57
2023/12/29 06:29:18;;;;;;;7.38;3.00;;;23.20;37.50;;;;;;4962975;28;20047;-59
2023/12/29 06:31:45;;;;;;;6.57;2.45;;;23.20;37.40;;;;;;4966940;28;20059;-59
2023/12/29 06:34:13;;;;;;;6.18;1.90;;;23.20;37.30;;;;;;4960659;28;20065;-60
2023/12/29 06:36:40;;;;;;;3.63;2.08;;;23.20;37.40;;;;;;4958404;28;20066;-58
2023/12/29 06:39:07;;;;;;;8.73;2.30;;;23.20;37.30;;;;;;4962497;28;20502;-57
2023/12/29 06:41:36;;;;;;;4.13;1.95;;;23.20;37.30;;;;;;4961938;28;20053;-61
2023/12/29 06:44:03;;;;;;;6.32;2.22;;;23.20;37.30;;;;;;4962790;28;20070;-59
2023/12/29 06:46:30;;;;;;;4.63;2.00;;;23.30;37.40;;;;;;4965299;28;20066;-59
2023/12/29 06:48:56;;;;;;;23.63;12.07;;;23.20;37.30;;;;;;4972991;28;20051;-58
2023/12/29 06:51:23;;;;;;;26.55;13.25;;;23.20;37.20;;;;;;4970826;28;20050;-60
2023/12/29 06:53:50;;;;;;;19.48;7.13;;;23.20;37.10;;;;;;4968940;28;20054;-55
2023/12/29 06:56:18;;;;;;;13.68;5.63;;;23.20;37.30;;;;;;4965273;28;20070;-56
2023/12/29 06:58:46;;;;;;;10.32;5.57;;;23.20;37.30;;;;;;4959690;28;20527;-54
2023/12/29 07:01:15;;;;;;;9.98;5.07;;;23.20;37.20;;;;;;4951743;28;20051;-53
2023/12/29 07:03:42;;;;;;;10.63;4.43;;;23.20;37.20;;;;;;4962991;28;20055;-54
2023/12/29 07:06:10;;;;;;;6.82;3.25;;;23.10;37.20;;;;;;4964384;28;20065;-54
2023/12/29 07:08:38;;;;;;;63.83;6.03;;;23.10;37.10;;;;;;4962016;28;20063;-59
2023/12/29 07:11:05;;;;;;;8.02;3.20;;;23.10;37.30;;;;;;4957121;28;20527;-56
2023/12/29 07:13:32;;;;;;;6.38;2.85;;;23.10;37.30;;;;;;4964125;28;20055;-57
2023/12/29 07:16:00;;;;;;;4.63;2.17;;;23.10;37.30;;;;;;4961791;28;20736;-56
2023/12/29 07:18:28;;;;;;;8.27;2.33;;;23.10;37.20;;;;;;4965283;28;20065;-56
2023/12/29 07:20:55;;;;;;;3.58;2.13;;;23.00;37.20;;;;;;4966090;28;20062;-53
2023/12/29 07:23:22;;;;;;;5.90;2.60;;;23.00;37.20;;;;;;4961183;28;20440;-56
2023/12/29 07:25:49;;;;;;;5.35;2.58;;;23.00;37.20;;;;;;4963135;28;20050;-57
2023/12/29 07:28:16;;;;;;;5.75;2.05;;;23.00;37.20;;;;;;4962214;28;20058;-55
2023/12/29 07:30:43;;;;;;;7.45;2.80;;;22.90;37.20;;;;;;4965565;28;20057;-55
2023/12/29 07:33:12;;;;;;;7.88;2.58;;;22.90;37.20;;;;;;4966673;28;20057;-54
2023/12/29 07:35:39;;;;;;;3.20;1.70;;;22.90;37.20;;;;;;4963414;28;20061;-57
2023/12/29 07:38:06;;;;;;;4.70;1.60;;;22.90;37.20;;;;;;4970306;28;20383;-54
2023/12/29 07:40:33;;;;;;;5.40;1.80;;;22.90;37.30;;;;;;4967704;28;20533;-56
2023/12/29 07:43:00;;;;;;;4.93;1.83;;;22.80;37.30;;;;;;4968233;28;20061;-56
2023/12/29 07:45:28;;;;;;;4.93;1.60;;;22.80;37.40;;;;;;4965675;28;20060;-56
2023/12/29 07:47:54;;;;;;;7.07;1.58;;;22.80;37.40;;;;;;4966057;28;20497;-57
2023/12/29 07:50:23;;;;;;;2.03;1.27;;;22.70;37.30;;;;;;4964685;28;20043;-54
2023/12/29 07:52:50;;;;;;;6.05;1.60;;;22.70;37.40;;;;;;4957230;28;20070;-56
2023/12/29 07:55:17;;;;;;;4.80;1.05;;;22.70;37.50;;;;;;4955256;28;20059;-56
2023/12/29 07:57:46;;;;;;;2.38;1.20;;;22.60;37.40;;;;;;4964253;28;20073;-56
2023/12/29 08:00:15;;;;;;;3.17;1.20;;;22.70;37.40;;;;;;4963123;28;20047;-54
2023/12/29 08:02:42;;;;;;;2.38;1.08;;;22.60;37.40;;;;;;4969888;28;20050;-55
2023/12/29 08:05:09;;;;;;;4.38;1.30;;;22.60;37.40;;;;;;4963518;28;20063;-55
2023/12/29 08:07:38;;;;;;;1.67;0.98;;;22.60;37.40;;;;;;4966197;28;20050;-56
2023/12/29 08:10:06;;;;;;;6.20;1.13;;;22.50;37.40;;;;;;4985694;28;20747;-55
2023/12/29 08:12:34;;;;;;;2.35;0.75;;;22.50;37.40;;;;;;4978983;28;20062;-56
2023/12/29 08:15:02;;;;;;;2.05;0.98;;;22.50;37.90;;;;;;4985719;28;20054;-55
2023/12/29 08:17:31;;;;;;;1.85;0.80;;;22.50;37.50;;;;;;4981987;28;20054;-55
2023/12/29 08:19:58;;;;;;;3.70;0.85;;;22.40;37.50;;;;;;4981433;28;20062;-55
2023/12/29 08:22:25;;;;;;;4.68;0.80;;;22.40;37.40;;;;;;4982153;28;20057;-55
2023/12/29 08:24:53;;;;;;;4.55;1.00;;;22.40;37.40;;;;;;4982391;28;20436;-56
2023/12/29 08:27:24;;;;;;;5.75;0.80;;;22.40;37.40;;;;;;4971552;28;20058;-57
2023/12/29 08:29:51;;;;;;;3.28;0.65;;;22.40;37.30;;;;;;4977910;28;20054;-56
2023/12/29 08:32:19;;;;;;;10.95;1.00;;;22.40;37.10;;;;;;4982573;28;20051;-55
2023/12/29 08:34:46;;;;;;;4.57;1.02;;;22.40;37.30;;;;;;4984511;28;20055;-57
2023/12/29 08:37:15;;;;;;;9.70;1.23;;;22.40;37.50;;;;;;4983380;28;20444;-55
2023/12/29 08:39:42;;;;;;;6.38;0.98;;;22.30;37.60;;;;;;4979392;28;20054;-55
2023/12/29 08:42:11;;;;;;;12.10;1.23;;;22.40;37.90;;;;;;4981014;28;20050;-56
2023/12/29 08:44:38;;;;;;;4.07;0.82;;;22.50;37.90;;;;;;4980894;28;20497;-57
2023/12/29 08:47:07;;;;;;;2.83;0.77;;;22.50;38.30;;;;;;4981024;28;20054;-58
2023/12/29 08:49:35;;;;;;;8.93;1.55;;;22.50;37.70;;;;;;4979653;28;20516;-57
2023/12/29 08:52:02;;;;;;;8.23;0.82;;;22.60;37.80;;;;;;4982189;28;20154;-56
2023/12/29 08:54:29;;;;;;;2.85;0.70;;;22.60;37.80;;;;;;4983363;28;20077;-57
2023/12/29 08:56:56;;;;;;;7.30;1.00;;;22.60;37.70;;;;;;4982466;28;20054;-58
2023/12/29 08:59:25;;;;;;;9.98;1.30;;;22.70;37.90;;;;;;4977102;28;20504;-56
2023/12/29 09:01:52;;;;;;;2.72;0.63;;;22.70;37.90;;;;;;4981795;28;20054;-57
2023/12/29 09:04:19;;;;;;;1.90;0.63;;;22.80;37.90;;;;;;4984261;28;20058;-56
2023/12/29 09:06:46;;;;;;;2.83;0.63;;;22.80;37.80;;;;;;4980526;28;20058;-57
2023/12/29 09:09:13;;;;;;;9.27;0.90;;;22.80;37.70;;;;;;4979791;28;20058;-60
2023/12/29 09:11:41;;;;;;;4.80;0.90;;;22.80;37.60;;;;;;4982881;28;20046;-56
2023/12/29 09:14:08;;;;;;;3.53;1.13;;;22.90;37.70;;;;;;4988576;28;20054;-58
2023/12/29 09:16:37;;;;;;;4.10;1.20;;;22.90;37.70;;;;;;4979871;28;20226;-57
2023/12/29 09:19:04;;;;;;;1.88;0.98;;;22.90;37.60;;;;;;4980013;28;20042;-57
2023/12/29 09:21:31;;;;;;;4.95;2.08;;;22.90;37.60;;;;;;4980957;28;20050;-58
2023/12/29 09:23:59;;;;;;;12.02;4.78;;;23.00;37.60;;;;;;4976737;28;20054;-58
2023/12/29 09:26:26;;;;;;;16.42;4.85;;;22.90;37.50;;;;;;4983113;28;20440;-57
2023/12/29 09:28:53;;;;;;;11.30;4.28;;;22.90;37.50;;;;;;4983769;28;20050;-58
2023/12/29 09:31:21;;;;;;;9.25;2.97;;;22.90;37.50;;;;;;4980795;28;20639;-57
2023/12/29 09:33:49;;;;;;;8.35;2.85;;;22.90;37.40;;;;;;4978260;28;20054;-58
2023/12/29 09:36:16;;;;;;;10.02;2.65;;;22.90;37.40;;;;;;4980709;28;20508;-57
2023/12/29 09:38:46;;;;;;;5.60;1.98;;;22.90;37.40;;;;;;4979330;28;20058;-58
2023/12/29 09:41:16;;;;;;;3.28;1.55;;;22.90;37.40;;;;;;4985919;28;20054;-56
2023/12/29 09:43:44;;;;;;;4.03;1.30;;;22.90;37.30;;;;;;4982437;28;20054;-57
2023/12/29 09:46:15;;;;;;;8.38;2.05;;;22.90;37.30;;;;;;4982714;28;20062;-57
2023/12/29 09:48:46;;;;;;;7.38;2.00;;;22.90;37.30;;;;;;4979716;28;20420;-58
2023/12/29 09:51:16;;;;;;;3.22;1.27;;;22.90;37.40;;;;;;4976475;28;20053;-57
2023/12/29 09:53:43;;;;;;;6.72;1.20;;;22.90;37.30;;;;;;4984390;28;20058;-57
2023/12/29 09:56:52;;;;;;;19.85;3.25;;;22.80;37.30;;;;;;4993058;28;20054;-57
2023/12/29 09:59:21;;;;;;;9.95;3.72;;;22.80;37.40;;;;;;4984873;28;20058;-59
2023/12/29 10:01:50;;;;;;;16.08;3.92;;;22.80;37.40;;;;;;4983066;28;20139;-57
2023/12/29 10:07:41;;;;;;;8.88;2.97;;;22.80;37.30;;;;;;4979590;28;20041;-60
2023/12/29 10:10:14;;;;;;;4.68;2.30;;;22.80;37.30;;;;;;4985977;28;20057;-57
2023/12/29 10:12:43;;;;;;;5.18;2.42;;;22.70;37.20;;;;;;4983486;28;20113;-59
2023/12/29 10:15:15;;;;;;;3.80;2.05;;;22.70;37.30;;;;;;4983056;28;20061;-59
2023/12/29 10:17:50;;;;;;;7.10;2.20;;;22.60;37.20;;;;;;4983058;28;20053;-56
2023/12/29 10:20:31;;;;;;;8.30;2.75;;;22.60;37.30;;;;;;4980915;28;20058;-57
2023/12/29 10:23:08;;;;;;;6.38;2.30;;;22.60;37.50;;;;;;4983596;28;20511;-59
2023/12/29 10:25:35;;;;;;;7.70;2.40;;;22.50;37.50;;;;;;4982929;28;20058;-61
2023/12/29 10:28:03;;;;;;;3.78;1.92;;;22.50;37.50;;;;;;4981463;28;21195;-60
2023/12/29 10:30:31;;;;;;;7.95;2.08;;;22.50;37.50;;;;;;4974553;28;20432;-63
2023/12/29 10:33:00;;;;;;;7.03;2.15;;;22.50;37.70;;;;;;4980895;28;20425;-55
2023/12/29 10:35:27;;;;;;;7.95;1.83;;;22.50;37.70;;;;;;4979151;28;20054;-58
2023/12/29 10:37:55;;;;;;;5.45;1.52;;;22.50;37.80;;;;;;4973158;28;20055;-58
2023/12/29 10:40:23;;;;;;;7.57;2.00;;;22.50;37.90;;;;;;4980321;28;20532;-59
2023/12/29 10:42:54;;;;;;;6.07;1.30;;;22.60;37.90;;;;;;4978271;28;20050;-60
2023/12/29 10:45:23;;;;;;;7.97;1.33;;;22.60;37.90;;;;;;4982468;28;20050;-60
2023/12/29 10:47:50;;;;;;;8.15;1.20;;;22.70;37.90;;;;;;4984210;28;20065;-58
2023/12/29 10:50:17;;;;;;;16.92;1.48;;;22.80;37.90;;;;;;4983344;28;20050;-59
2023/12/29 10:52:46;;;;;;;4.03;1.15;;;22.80;37.90;;;;;;4981241;28;20409;-59
2023/12/29 10:55:13;;;;;;;6.55;1.23;;;22.80;37.80;;;;;;4977670;28;20073;-59
2023/12/29 10:57:42;;;;;;;6.05;1.23;;;22.90;37.90;;;;;;4986292;28;20053;-58
2023/12/29 11:00:12;;;;;;;3.40;0.80;;;22.90;37.70;;;;;;4987786;28;20081;-60
2023/12/29 11:02:39;;;;;;;10.68;0.85;;;22.90;37.70;;;;;;4977149;28;20051;-58
2023/12/29 11:05:07;;;;;;;2.40;0.80;;;22.90;37.70;;;;;;4984557;28;20085;-59
2023/12/29 11:07:36;;;;;;;4.57;1.00;;;23.00;37.70;;;;;;4987074;28;20515;-59
2023/12/29 11:10:05;;;;;;;3.15;0.65;;;23.00;37.60;;;;;;4965642;28;20055;-56
2023/12/29 11:12:35;;;;;;;2.05;0.50;;;23.00;37.50;;;;;;4962470;28;20047;-60
2023/12/29 11:15:05;;;;;;;1.67;0.70;;;23.00;37.50;;;;;;4963330;28;20050;-59
2023/12/29 11:17:34;;;;;;;0.82;0.38;;;23.00;37.50;;;;;;4969946;28;20051;-60
2023/12/29 11:20:04;;;;;;;1.75;0.50;;;23.00;37.50;;;;;;4965423;28;20386;-59
2023/12/29 11:22:32;;;;;;;0.85;0.45;;;23.00;37.50;;;;;;4963054;28;20054;-60
2023/12/29 11:25:00;;;;;;;1.00;0.30;;;23.00;37.40;;;;;;4967297;28;20058;-61
2023/12/29 11:27:30;;;;;;;0.75;0.30;;;23.00;37.40;;;;;;4965142;28;20047;-61
2023/12/29 11:29:59;;;;;;;1.70;0.40;;;23.00;37.40;;;;;;4966493;28;20482;-60
2023/12/29 11:32:39;;;;;;;0.85;0.43;;;23.00;37.40;;;;;;4964434;28;20047;-56
2023/12/29 11:35:13;;;;;;;0.47;0.30;;;23.00;37.40;;;;;;4966965;28;20429;-57
2023/12/29 11:38:00;;;;;;;0.88;0.30;;;23.00;37.40;;;;;;4959372;28;20077;-57
2023/12/29 11:40:33;;;;;;;1.30;0.30;;;22.90;37.40;;;;;;4964199;28;20058;-56
2023/12/29 11:43:06;;;;;;;0.67;0.50;;;22.90;37.40;;;;;;4967730;28;20511;-56
2023/12/29 11:45:37;;;;;;;0.30;0.30;;;22.90;37.40;;;;;;4963775;28;20425;-56
2023/12/29 11:48:06;;;;;;;1.00;0.43;;;22.90;37.40;;;;;;4969552;28;20050;-56
2023/12/29 11:50:36;;;;;;;0.80;0.30;;;22.90;37.40;;;;;;4963896;28;20054;-56
2023/12/29 11:53:04;;;;;;;0.57;0.32;;;22.90;37.40;;;;;;4969630;28;20481;-57
2023/12/29 11:55:33;;;;;;;2.22;0.55;;;22.80;37.40;;;;;;4961112;28;20062;-57
2023/12/29 11:58:01;;;;;;;0.47;0.30;;;22.80;37.50;;;;;;4962978;28;20046;-57
2023/12/29 12:00:47;;;;;;;0.65;0.30;;;22.80;37.50;;;;;;4960590;28;20067;-57
2023/12/29 12:03:19;;;;;;;0.52;0.20;;;22.70;37.50;;;;;;4960326;28;20055;-57
2023/12/29 12:05:47;;;;;;;0.52;0.28;;;22.70;37.50;;;;;;4963021;28;20058;-57
2023/12/29 12:08:31;;;;;;;0.60;0.40;;;22.70;38.00;;;;;;4971760;28;20062;-57
2023/12/29 12:11:19;;;;;;;;;;;22.70;37.50;;;;;;4970976;28;20061;-57
2023/12/29 12:13:46;;;;;;;0.50;0.15;;;22.80;37.60;;;;;;4957998;28;19922;-55
2023/12/29 12:16:47;;;;;;;0.20;0.20;;;22.70;37.40;;;;;;4953694;28;20055;-58
2023/12/29 12:19:16;;;;;;;0.10;0.10;;;22.60;37.40;;;;;;4962466;28;20119;-57
2023/12/29 12:21:46;;;;;;;0.43;0.15;;;22.60;37.50;;;;;;4962465;28;20051;-57
2023/12/29 12:24:14;;;;;;;1.73;0.20;;;22.60;37.60;;;;;;4965640;28;20058;-57
2023/12/29 12:26:41;;;;;;;0.40;0.20;;;22.50;37.70;;;;;;4967697;28;20798;-57
2023/12/29 12:29:09;;;;;;;0.30;0.10;;;22.50;37.70;;;;;;4964118;28;20051;-58
2023/12/29 12:31:37;;;;;;;1.45;0.30;;;22.50;37.80;;;;;;4961817;28;20065;-57
2023/12/29 12:34:05;;;;;;;1.05;0.35;;;22.50;37.90;;;;;;4963464;28;20576;-57
2023/12/29 12:36:49;;;;;;;1.02;0.30;;;22.60;38.00;;;;;;4962795;28;20058;-58
2023/12/29 12:39:16;;;;;;;0.70;0.20;;;22.60;38.00;;;;;;4956854;28;20051;-57
2023/12/29 12:41:44;;;;;;;1.63;0.30;;;22.70;38.00;;;;;;4960622;28;20515;-56
2023/12/29 12:44:12;;;;;;;0.95;0.40;;;22.70;37.90;;;;;;4968672;28;20398;-58
2023/12/29 12:46:42;;;;;;;4.63;0.30;;;22.70;37.90;;;;;;4965012;28;20054;-57
2023/12/29 12:49:10;;;;;;;1.95;0.20;;;22.80;38.00;;;;;;4962167;28;20059;-57
2023/12/29 12:51:38;;;;;;;4.07;0.50;;;22.80;37.90;;;;;;4961073;28;20058;-58
2023/12/29 12:54:06;;;;;;;2.00;0.20;;;22.90;37.90;;;;;;4964626;28;20054;-62